createdAt,value
2024-04-12T00:01:53.616Z,7.73
2024-04-12T00:11:55.939Z,7.64
2024-04-12T00:21:58.356Z,7.59
2024-04-12T00:32:00.638Z,7.32
2024-04-12T00:42:02.788Z,7.21
2024-04-12T00:52:05.287Z,7.27
2024-04-12T01:02:07.500Z,7.09
2024-04-12T01:12:10.402Z,7.01
2024-04-12T01:22:31.147Z,6.95
2024-04-12T01:32:52.083Z,7.05
2024-04-12T01:43:13.210Z,6.82
2024-04-12T01:53:34.102Z,6.77
2024-04-12T02:03:54.774Z,6.68
2024-04-12T02:14:15.661Z,6.87
2024-04-12T02:24:36.320Z,6.83
2024-04-12T02:34:56.990Z,6.57
2024-04-12T02:45:17.699Z,6.57
2024-04-12T02:55:38.410Z,6.40
2024-04-12T03:05:59.184Z,6.47
2024-04-12T03:16:01.474Z,6.44
2024-04-12T03:26:03.698Z,6.56
2024-04-12T03:36:05.966Z,6.54
2024-04-12T03:46:08.384Z,7.28
2024-04-12T03:56:10.700Z,7.63
2024-04-12T04:06:13.036Z,7.45
2024-04-12T04:16:15.338Z,7.22
2024-04-12T04:26:17.505Z,7.85
2024-04-12T04:36:19.794Z,8.78
2024-04-12T04:46:22.093Z,9.55
2024-04-12T04:56:24.383Z,10.73
2024-04-12T05:06:26.558Z,11.54
2024-04-12T05:16:28.768Z,12.14
2024-04-12T05:26:32.658Z,13.64
2024-04-12T05:36:36.083Z,14.24
2024-04-12T05:46:38.216Z,15.66
2024-04-12T05:56:40.544Z,14.69
2024-04-12T06:06:43.225Z,15.70
2024-04-12T06:16:45.678Z,16.32
2024-04-12T06:26:47.966Z,15.40
2024-04-12T06:36:50.358Z,17.91
2024-04-12T06:46:52.510Z,18.64
2024-04-12T06:56:54.664Z,18.06
2024-04-12T07:06:56.998Z,19.03
2024-04-12T07:17:00.255Z,18.84
2024-04-12T07:27:06.268Z,19.85
2024-04-12T07:37:08.663Z,19.69
2024-04-12T07:47:11.702Z,20.27
2024-04-12T07:57:14.092Z,20.80
2024-04-12T08:07:16.270Z,20.06
2024-04-12T08:17:18.539Z,19.74
2024-04-12T08:27:20.843Z,20.26
2024-04-12T08:37:23.028Z,18.95
2024-04-12T08:47:25.353Z,19.03
2024-04-12T08:57:27.581Z,20.21
2024-04-12T09:07:29.746Z,16.22
2024-04-12T09:17:32.127Z,16.09
2024-04-12T09:27:34.516Z,15.64
2024-04-12T09:37:36.721Z,15.94
2024-04-12T09:47:39.042Z,16.38
2024-04-12T09:57:41.570Z,16.86
2024-04-12T10:18:01.470Z,17.33
2024-04-12T10:28:03.859Z,17.15
2024-04-12T10:38:06.043Z,17.33
2024-04-12T10:48:15.063Z,17.39
2024-04-12T10:58:17.447Z,18.01
2024-04-12T11:08:23.715Z,18.45
2024-04-12T11:18:29.943Z,18.33
2024-04-12T11:28:32.158Z,18.59
2024-04-12T11:38:34.422Z,18.59
2024-04-12T11:48:38.226Z,18.80
2024-04-12T11:58:41.403Z,19.05
2024-04-12T12:08:43.588Z,18.86
2024-04-12T12:18:46.832Z,19.02
2024-04-12T12:28:49.186Z,19.10
2024-04-12T12:38:51.595Z,19.25
2024-04-12T12:48:54.214Z,19.53
2024-04-12T12:59:01.650Z,19.82
2024-04-12T13:09:03.835Z,19.22
2024-04-12T13:19:06.352Z,19.71
2024-04-12T13:29:08.761Z,19.88
2024-04-12T13:39:11.196Z,19.70
2024-04-12T13:49:13.462Z,19.94
2024-04-12T13:59:15.890Z,20.29
2024-04-12T14:09:21.919Z,19.78
2024-04-12T14:19:25.188Z,19.84
2024-04-12T14:29:27.457Z,19.89
2024-04-12T14:39:29.850Z,19.99
2024-04-12T14:49:33.663Z,19.92
2024-04-12T14:59:35.843Z,19.85
2024-04-12T15:09:38.071Z,19.93
2024-04-12T15:19:40.401Z,19.91
2024-04-12T15:29:49.279Z,19.81
2024-04-12T15:39:51.823Z,19.90
2024-04-12T15:49:54.016Z,19.82
2024-04-12T15:59:56.682Z,19.63
2024-04-12T16:09:59.156Z,19.57
2024-04-12T16:20:01.702Z,19.50
2024-04-12T16:30:04.908Z,19.05
2024-04-12T16:40:07.350Z,19.02
2024-04-12T16:50:09.613Z,18.78
2024-04-12T17:00:11.906Z,18.50
2024-04-12T17:10:15.673Z,18.26
2024-04-12T17:20:19.234Z,17.51
2024-04-12T17:30:23.414Z,17.04
2024-04-12T17:40:25.724Z,16.87
2024-04-12T17:50:28.099Z,16.67
2024-04-12T18:00:30.422Z,16.41
2024-04-12T18:10:36.793Z,15.82
2024-04-12T18:20:39.229Z,15.35
